createdAt,value
2023-01-17T00:00:44.579Z,70.99
2023-01-17T00:01:44.608Z,71.04
2023-01-17T00:02:44.581Z,71.01
2023-01-17T00:03:44.571Z,70.99
2023-01-17T00:04:44.536Z,70.95
2023-01-17T00:05:44.527Z,70.95
2023-01-17T00:06:44.512Z,70.94
2023-01-17T00:07:44.535Z,70.87
2023-01-17T00:08:44.496Z,70.83
2023-01-17T00:09:44.490Z,70.81
2023-01-17T00:10:44.467Z,70.68
2023-01-17T00:11:44.489Z,70.64
2023-01-17T00:12:44.450Z,70.64
2023-01-17T00:13:44.442Z,70.59
2023-01-17T00:14:44.448Z,70.55
2023-01-17T00:15:44.461Z,70.56
2023-01-17T00:16:44.406Z,70.53
2023-01-17T00:17:44.413Z,70.57
2023-01-17T00:18:44.393Z,70.62
2023-01-17T00:19:44.380Z,70.65
2023-01-17T00:20:44.365Z,70.64
2023-01-17T00:21:44.350Z,70.66
2023-01-17T00:22:44.361Z,70.63
2023-01-17T00:23:44.330Z,70.61
2023-01-17T00:24:44.316Z,70.52
2023-01-17T00:25:44.312Z,70.51
2023-01-17T00:26:44.295Z,70.53
2023-01-17T00:27:44.287Z,70.56
2023-01-17T00:28:44.298Z,70.57
2023-01-17T00:29:44.270Z,70.61
2023-01-17T00:30:44.250Z,70.62
2023-01-17T00:31:44.297Z,70.60
2023-01-17T00:32:44.252Z,70.57
2023-01-17T00:33:44.234Z,70.58
2023-01-17T00:34:44.215Z,70.62
2023-01-17T00:35:44.213Z,70.64
2023-01-17T00:36:44.196Z,70.67
2023-01-17T00:37:44.175Z,70.63
2023-01-17T00:38:44.184Z,70.60
2023-01-17T00:39:44.160Z,70.62
2023-01-17T00:40:44.161Z,70.62
2023-01-17T00:41:44.137Z,70.62
2023-01-17T00:42:44.118Z,70.62
2023-01-17T00:43:44.128Z,70.61
2023-01-17T00:44:44.095Z,70.63
2023-01-17T00:45:44.096Z,70.60
2023-01-17T00:46:44.124Z,70.53
2023-01-17T00:47:44.091Z,70.52
2023-01-17T00:48:44.084Z,70.56
2023-01-17T00:49:44.044Z,70.55
2023-01-17T00:50:44.038Z,70.56
2023-01-17T00:51:44.037Z,70.57
2023-01-17T00:52:44.016Z,70.61
2023-01-17T00:53:44.003Z,70.65
2023-01-17T00:54:43.998Z,70.67
2023-01-17T00:55:43.978Z,70.65
2023-01-17T00:56:43.971Z,70.64
2023-01-17T00:57:43.955Z,70.61
2023-01-17T00:58:43.959Z,70.64
2023-01-17T00:59:43.953Z,70.67
2023-01-17T01:00:43.948Z,70.72
2023-01-17T01:01:44.028Z,70.74
2023-01-17T01:02:43.999Z,70.70
2023-01-17T01:03:43.897Z,70.70
2023-01-17T01:04:43.908Z,70.76
2023-01-17T01:05:43.879Z,70.77
2023-01-17T01:06:43.852Z,70.79
2023-01-17T01:07:43.864Z,70.80
2023-01-17T01:08:43.837Z,70.85
2023-01-17T01:09:43.821Z,70.90
2023-01-17T01:10:43.833Z,70.90
2023-01-17T01:11:43.809Z,70.93
2023-01-17T01:12:43.810Z,70.94
2023-01-17T01:13:43.797Z,70.95
2023-01-17T01:14:43.775Z,71.00
2023-01-17T01:15:43.778Z,71.02
2023-01-17T01:16:43.761Z,70.99
2023-01-17T01:17:43.736Z,71.06
2023-01-17T01:18:43.720Z,71.20
2023-01-17T01:19:43.729Z,71.37
2023-01-17T01:20:43.748Z,71.43
2023-01-17T01:21:43.691Z,71.47
2023-01-17T01:22:43.699Z,71.58
2023-01-17T01:23:43.680Z,71.68
2023-01-17T01:24:43.670Z,71.77
2023-01-17T01:25:43.690Z,71.92
2023-01-17T01:26:43.658Z,72.06
2023-01-17T01:27:43.633Z,72.02
2023-01-17T01:28:43.626Z,72.14
2023-01-17T01:29:43.613Z,72.22
2023-01-17T01:30:43.607Z,72.27
2023-01-17T01:31:43.653Z,72.15
2023-01-17T01:32:43.577Z,72.12
2023-01-17T01:33:43.564Z,72.16
2023-01-17T01:34:43.554Z,72.14
2023-01-17T01:35:43.541Z,72.18
2023-01-17T01:36:43.552Z,72.28
2023-01-17T01:37:43.526Z,72.33
2023-01-17T01:38:43.521Z,72.35
2023-01-17T01:39:43.500Z,72.34
2023-01-17T01:40:43.493Z,72.16
2023-01-17T01:41:43.498Z,71.93
2023-01-17T01:42:43.470Z,71.79
2023-01-17T01:43:43.475Z,71.72
2023-01-17T01:44:43.448Z,71.42
2023-01-17T01:45:43.511Z,71.30
2023-01-17T01:46:43.446Z,71.30
2023-01-17T01:47:43.414Z,71.38
2023-01-17T01:48:43.409Z,71.49
2023-01-17T01:49:43.420Z,71.65
2023-01-17T01:50:43.377Z,71.69
2023-01-17T01:51:43.379Z,71.79
2023-01-17T01:52:43.375Z,71.96
2023-01-17T01:53:43.366Z,72.01
2023-01-17T01:54:43.351Z,72.12
2023-01-17T01:55:43.374Z,72.26
2023-01-17T01:56:43.316Z,72.30
2023-01-17T01:57:43.319Z,72.39
2023-01-17T01:58:43.314Z,72.46
2023-01-17T01:59:43.287Z,72.50
2023-01-17T02:00:43.326Z,72.59
2023-01-17T02:01:43.355Z,72.69
2023-01-17T02:02:43.274Z,72.55
2023-01-17T02:03:43.278Z,72.40
2023-01-17T02:04:43.234Z,72.38
2023-01-17T02:05:43.220Z,72.43
2023-01-17T02:06:43.210Z,72.44
2023-01-17T02:07:43.217Z,72.43
2023-01-17T02:08:43.183Z,72.40
2023-01-17T02:09:43.182Z,72.45
2023-01-17T02:10:43.173Z,72.50
2023-01-17T02:11:43.156Z,72.53
2023-01-17T02:12:43.168Z,72.57
2023-01-17T02:13:43.139Z,72.63
2023-01-17T02:14:43.130Z,72.54
2023-01-17T02:15:43.107Z,72.37
2023-01-17T02:16:43.232Z,72.26
2023-01-17T02:17:43.085Z,72.20
2023-01-17T02:18:43.096Z,72.18
2023-01-17T02:19:43.067Z,72.25
2023-01-17T02:20:43.051Z,72.29
2023-01-17T02:21:43.033Z,72.24
2023-01-17T02:22:43.032Z,72.23
2023-01-17T02:23:43.021Z,72.17
2023-01-17T02:24:43.026Z,72.19
2023-01-17T02:25:43.639Z,72.24
2023-01-17T02:26:42.987Z,72.23
2023-01-17T02:27:42.974Z,72.31
2023-01-17T02:28:42.989Z,72.37
2023-01-17T02:29:42.953Z,72.39
2023-01-17T02:30:42.959Z,72.41
2023-01-17T02:31:42.949Z,72.45
2023-01-17T02:32:42.922Z,72.52
2023-01-17T02:33:42.915Z,72.69
2023-01-17T02:34:42.906Z,72.74
2023-01-17T02:35:42.912Z,72.74
2023-01-17T02:36:42.883Z,72.77
2023-01-17T02:37:42.876Z,72.69
2023-01-17T02:38:42.869Z,72.72
2023-01-17T02:39:42.868Z,72.77
2023-01-17T02:40:42.844Z,72.81
2023-01-17T02:41:42.844Z,72.91
2023-01-17T02:42:42.836Z,72.97
2023-01-17T02:43:42.813Z,72.97
2023-01-17T02:44:42.805Z,72.95
2023-01-17T02:45:42.858Z,72.78
2023-01-17T02:46:42.783Z,72.64
2023-01-17T02:47:42.767Z,72.62
2023-01-17T02:48:42.747Z,72.71
2023-01-17T02:49:42.756Z,72.69
2023-01-17T02:50:42.729Z,72.66
2023-01-17T02:51:42.713Z,72.69
2023-01-17T02:52:42.706Z,72.60
2023-01-17T02:53:42.696Z,72.52
2023-01-17T02:54:42.712Z,72.57
2023-01-17T02:55:42.694Z,72.61
2023-01-17T02:56:42.666Z,72.55
2023-01-17T02:57:42.657Z,72.54
2023-01-17T02:58:42.640Z,72.55
2023-01-17T02:59:42.631Z,72.59
2023-01-17T03:00:42.646Z,72.57
2023-01-17T03:01:42.750Z,72.56
2023-01-17T03:02:42.658Z,72.53
2023-01-17T03:03:42.591Z,72.52
2023-01-17T03:04:42.585Z,72.58
2023-01-17T03:05:42.578Z,72.70
2023-01-17T03:06:42.558Z,72.74
2023-01-17T03:07:42.549Z,72.65
2023-01-17T03:08:42.554Z,72.58
2023-01-17T03:09:42.526Z,72.56
2023-01-17T03:10:42.556Z,72.62
2023-01-17T03:11:42.513Z,72.50
2023-01-17T03:12:42.505Z,72.39
2023-01-17T03:13:42.486Z,72.29
2023-01-17T03:14:42.473Z,72.29
2023-01-17T03:15:42.463Z,72.33
2023-01-17T03:16:42.482Z,72.30
2023-01-17T03:17:42.427Z,72.21
2023-01-17T03:18:42.428Z,72.18
2023-01-17T03:19:42.415Z,72.21
2023-01-17T03:20:42.416Z,72.23
2023-01-17T03:21:42.402Z,72.13
2023-01-17T03:22:42.382Z,72.19
2023-01-17T03:23:42.370Z,72.07
2023-01-17T03:24:42.367Z,72.00
2023-01-17T03:25:42.377Z,71.96
2023-01-17T03:26:42.353Z,71.99
2023-01-17T03:27:42.342Z,72.03
2023-01-17T03:28:42.319Z,72.03
2023-01-17T03:29:42.324Z,72.04
2023-01-17T03:30:42.349Z,71.87
2023-01-17T03:31:42.299Z,71.83
2023-01-17T03:32:42.278Z,71.83
2023-01-17T03:33:42.265Z,71.80
2023-01-17T03:34:42.254Z,71.79
2023-01-17T03:35:42.261Z,71.76
2023-01-17T03:36:42.235Z,71.71
2023-01-17T03:37:42.223Z,71.71
2023-01-17T03:38:42.214Z,71.73
2023-01-17T03:39:42.200Z,71.71
2023-01-17T03:40:42.185Z,71.73
2023-01-17T03:41:42.189Z,71.74
2023-01-17T03:42:42.166Z,71.72
2023-01-17T03:43:42.163Z,71.69
2023-01-17T03:44:42.146Z,71.64
2023-01-17T03:45:42.176Z,71.61
2023-01-17T03:46:42.114Z,71.60
2023-01-17T03:47:42.115Z,71.59
2023-01-17T03:48:42.103Z,71.61
2023-01-17T03:49:42.098Z,71.64
2023-01-17T03:50:42.089Z,71.69
2023-01-17T03:51:42.087Z,71.75
2023-01-17T03:52:42.069Z,71.71
2023-01-17T03:53:42.053Z,71.73
2023-01-17T03:54:42.058Z,71.72
2023-01-17T03:55:42.031Z,71.67
2023-01-17T03:56:42.039Z,71.63
2023-01-17T03:57:41.999Z,71.60
2023-01-17T03:58:41.996Z,71.53
2023-01-17T03:59:41.988Z,71.53
2023-01-17T04:00:41.978Z,71.52
2023-01-17T04:01:42.084Z,71.38
2023-01-17T04:02:42.012Z,71.32
2023-01-17T04:03:41.958Z,71.33
2023-01-17T04:04:41.936Z,71.37
2023-01-17T04:05:41.920Z,71.40
2023-01-17T04:06:41.922Z,71.30
2023-01-17T04:07:41.897Z,71.22
2023-01-17T04:08:41.895Z,71.19
2023-01-17T04:09:41.870Z,71.15
2023-01-17T04:10:41.861Z,71.10
2023-01-17T04:11:41.847Z,71.03
2023-01-17T04:12:41.834Z,70.96
2023-01-17T04:13:41.835Z,70.98
2023-01-17T04:14:41.828Z,71.01
2023-01-17T04:15:41.811Z,71.00
2023-01-17T04:16:41.870Z,70.93
2023-01-17T04:17:41.785Z,70.90
2023-01-17T04:18:41.776Z,70.93
2023-01-17T04:19:41.763Z,70.92
2023-01-17T04:20:41.752Z,70.89
2023-01-17T04:21:41.770Z,70.89
2023-01-17T04:22:41.731Z,70.88
2023-01-17T04:23:41.735Z,70.90
2023-01-17T04:24:41.720Z,70.92
2023-01-17T04:25:41.697Z,70.96
2023-01-17T04:26:41.694Z,71.00
2023-01-17T04:27:41.685Z,70.95
2023-01-17T04:28:41.702Z,70.96
2023-01-17T04:29:41.664Z,70.96
2023-01-17T04:30:41.678Z,70.95
2023-01-17T04:31:41.702Z,70.93
2023-01-17T04:32:41.653Z,70.96
2023-01-17T04:33:41.631Z,70.96
2023-01-17T04:34:41.623Z,70.98
2023-01-17T04:35:41.596Z,71.03
2023-01-17T04:36:41.589Z,71.05
2023-01-17T04:37:41.571Z,71.07
2023-01-17T04:38:41.595Z,71.09
2023-01-17T04:39:41.558Z,71.13
2023-01-17T04:40:41.538Z,71.19
2023-01-17T04:41:41.524Z,71.21
2023-01-17T04:42:41.520Z,71.24
2023-01-17T04:43:41.519Z,71.23
2023-01-17T04:44:49.008Z,71.19
2023-01-17T04:45:41.487Z,71.19
2023-01-17T04:46:41.474Z,71.19
2023-01-17T04:47:41.461Z,71.21
2023-01-17T04:48:41.486Z,71.22
2023-01-17T04:49:43.997Z,71.21
2023-01-17T04:50:41.430Z,71.17
2023-01-17T04:51:41.416Z,71.06
2023-01-17T04:52:41.409Z,71.07
2023-01-17T04:53:41.388Z,71.09
2023-01-17T04:54:41.420Z,71.12
2023-01-17T04:55:41.374Z,71.16
2023-01-17T04:56:41.361Z,71.13
2023-01-17T04:57:41.343Z,71.09
2023-01-17T04:58:41.344Z,71.11
2023-01-17T04:59:41.328Z,71.02
2023-01-17T05:00:41.332Z,70.99
2023-01-17T05:01:41.423Z,71.02
2023-01-17T05:02:41.304Z,71.06
2023-01-17T05:03:41.287Z,71.02
2023-01-17T05:04:41.287Z,71.00
2023-01-17T05:05:41.263Z,70.96
2023-01-17T05:06:41.256Z,70.92
2023-01-17T05:07:41.347Z,70.83
2023-01-17T05:08:41.242Z,70.85
2023-01-17T05:09:41.247Z,70.85
2023-01-17T05:10:41.201Z,70.87
2023-01-17T05:11:41.212Z,70.81
2023-01-17T05:12:41.193Z,70.68
2023-01-17T05:13:41.180Z,70.80
2023-01-17T05:14:41.178Z,70.82
2023-01-17T05:15:41.197Z,70.74
2023-01-17T05:16:41.194Z,70.62
2023-01-17T05:17:41.147Z,70.58
2023-01-17T05:18:41.127Z,70.53
2023-01-17T05:19:41.114Z,70.56
2023-01-17T05:20:41.138Z,70.59
2023-01-17T05:21:41.117Z,70.60
2023-01-17T05:22:41.080Z,70.39
2023-01-17T05:23:41.082Z,70.26
2023-01-17T05:24:41.058Z,70.07
2023-01-17T05:25:41.046Z,69.87
2023-01-17T05:26:41.049Z,69.89
2023-01-17T05:27:41.035Z,69.96
2023-01-17T05:28:41.014Z,69.82
2023-01-17T05:29:40.999Z,69.72
2023-01-17T05:30:41.023Z,69.74
2023-01-17T05:31:40.991Z,69.71
2023-01-17T05:32:40.980Z,69.98
2023-01-17T05:33:40.969Z,69.89
2023-01-17T05:34:40.953Z,69.60
2023-01-17T05:35:40.950Z,69.35
2023-01-17T05:36:40.946Z,69.22
2023-01-17T05:37:40.922Z,69.12
2023-01-17T05:38:40.907Z,69.03
2023-01-17T05:39:40.901Z,69.00
2023-01-17T05:40:40.890Z,69.04
2023-01-17T05:41:40.907Z,69.04
2023-01-17T05:42:40.862Z,68.98
2023-01-17T05:43:40.851Z,68.96
2023-01-17T05:44:40.858Z,68.90
2023-01-17T05:45:40.827Z,68.85
2023-01-17T05:46:40.858Z,69.24
2023-01-17T05:47:40.816Z,69.10
2023-01-17T05:48:40.802Z,68.82
2023-01-17T05:49:40.797Z,68.55
2023-01-17T05:50:40.786Z,68.38
2023-01-17T05:51:40.795Z,68.33
2023-01-17T05:52:40.771Z,68.25
2023-01-17T05:53:40.757Z,68.21
2023-01-17T05:54:40.727Z,68.14
2023-01-17T05:55:40.728Z,68.06
2023-01-17T05:56:40.710Z,68.10
2023-01-17T05:57:40.728Z,68.07
2023-01-17T05:58:40.697Z,68.09
2023-01-17T05:59:40.675Z,68.06
2023-01-17T06:00:40.668Z,68.05
2023-01-17T06:01:40.655Z,68.02
2023-01-17T06:02:40.700Z,68.06
2023-01-17T06:03:40.643Z,68.03
2023-01-17T06:04:40.633Z,67.99
2023-01-17T06:05:40.611Z,67.99
2023-01-17T06:06:40.599Z,68.02
2023-01-17T06:07:40.623Z,68.00
2023-01-17T06:08:40.591Z,67.91
2023-01-17T06:09:40.575Z,67.93
2023-01-17T06:10:40.565Z,68.02
2023-01-17T06:11:40.555Z,68.08
2023-01-17T06:12:40.534Z,68.09
2023-01-17T06:13:40.550Z,68.01
2023-01-17T06:14:40.513Z,68.03
2023-01-17T06:15:40.545Z,68.05
2023-01-17T06:16:40.506Z,67.92
2023-01-17T06:17:40.500Z,67.95
2023-01-17T06:18:40.482Z,68.03
2023-01-17T06:19:40.462Z,68.04
2023-01-17T06:20:40.455Z,68.00
2023-01-17T06:21:40.437Z,67.95
2023-01-17T06:22:40.448Z,67.98
2023-01-17T06:23:40.418Z,68.05
2023-01-17T06:24:40.415Z,68.08
2023-01-17T06:25:40.410Z,68.09
2023-01-17T06:26:40.382Z,68.08
2023-01-17T06:27:40.392Z,67.94
2023-01-17T06:28:40.358Z,67.89
2023-01-17T06:29:40.357Z,67.94
2023-01-17T06:30:40.338Z,67.94
2023-01-17T06:31:40.375Z,67.92
2023-01-17T06:32:40.331Z,67.81
2023-01-17T06:33:40.342Z,67.80
2023-01-17T06:34:40.305Z,67.81
2023-01-17T06:35:40.291Z,67.80
2023-01-17T06:36:40.276Z,67.72
2023-01-17T06:37:40.266Z,67.75
2023-01-17T06:38:40.254Z,67.78
2023-01-17T06:39:40.260Z,67.88
2023-01-17T06:40:40.228Z,67.89
2023-01-17T06:41:40.228Z,67.87
2023-01-17T06:42:40.212Z,67.81
2023-01-17T06:43:40.197Z,67.66
2023-01-17T06:44:40.209Z,67.60
2023-01-17T06:45:40.183Z,67.71
2023-01-17T06:46:40.211Z,67.78
2023-01-17T06:47:40.158Z,67.69
2023-01-17T06:48:40.145Z,67.73
2023-01-17T06:49:40.160Z,69.77
2023-01-17T06:50:40.130Z,70.35
2023-01-17T06:51:41.751Z,68.72
2023-01-17T06:52:40.107Z,67.85
2023-01-17T06:53:40.102Z,67.03
2023-01-17T06:54:40.079Z,66.93
2023-01-17T06:55:40.115Z,66.95
2023-01-17T06:56:40.079Z,66.97
2023-01-17T06:57:40.043Z,67.11
2023-01-17T06:58:40.052Z,67.26
2023-01-17T06:59:40.040Z,67.32
2023-01-17T07:00:41.040Z,67.44
2023-01-17T07:01:40.057Z,67.46
2023-01-17T07:02:39.996Z,67.51
2023-01-17T07:03:39.979Z,67.54
2023-01-17T07:04:40.003Z,67.49
2023-01-17T07:05:39.958Z,67.48
2023-01-17T07:06:39.960Z,67.60
2023-01-17T07:07:39.941Z,67.54
2023-01-17T07:08:39.989Z,67.53
2023-01-17T07:09:39.937Z,67.46
2023-01-17T07:10:39.912Z,67.53
2023-01-17T07:11:39.896Z,67.52
2023-01-17T07:12:39.887Z,67.48
2023-01-17T07:13:39.874Z,67.52
2023-01-17T07:14:39.856Z,67.36
2023-01-17T07:15:39.867Z,67.36
2023-01-17T07:16:39.844Z,67.39
2023-01-17T07:17:39.827Z,67.41
2023-01-17T07:18:39.834Z,67.23
2023-01-17T07:19:39.808Z,67.25
2023-01-17T07:20:39.819Z,67.29
2023-01-17T07:21:39.833Z,67.22
2023-01-17T07:22:39.784Z,67.21
2023-01-17T07:23:39.765Z,67.14
2023-01-17T07:24:39.816Z,67.17
2023-01-17T07:25:39.750Z,67.20
2023-01-17T07:26:39.743Z,67.22
2023-01-17T07:27:39.749Z,67.21
2023-01-17T07:28:39.725Z,67.17
2023-01-17T07:29:39.703Z,67.22
2023-01-17T07:30:39.689Z,67.17
2023-01-17T07:31:39.731Z,67.14
2023-01-17T07:32:39.690Z,66.99
2023-01-17T07:33:39.660Z,66.95
2023-01-17T07:34:39.649Z,66.97
2023-01-17T07:35:39.641Z,67.08
2023-01-17T07:36:39.637Z,67.08
2023-01-17T07:37:39.649Z,67.05
2023-01-17T07:38:39.600Z,66.94
2023-01-17T07:39:39.594Z,66.96
2023-01-17T07:40:42.312Z,66.96
2023-01-17T07:41:39.574Z,66.96
2023-01-17T07:42:39.586Z,66.94
2023-01-17T07:43:39.553Z,67.02
2023-01-17T07:44:41.284Z,67.10
2023-01-17T07:45:39.531Z,67.09
2023-01-17T07:46:39.552Z,67.16
2023-01-17T07:47:39.503Z,67.17
2023-01-17T07:48:39.518Z,67.24
2023-01-17T07:49:39.482Z,67.28
2023-01-17T07:50:39.481Z,67.30
2023-01-17T07:51:39.466Z,67.32
2023-01-17T07:52:39.471Z,67.32
2023-01-17T07:53:39.452Z,67.37
2023-01-17T07:54:39.434Z,67.39
2023-01-17T07:55:39.419Z,67.42
2023-01-17T07:56:39.413Z,67.39
2023-01-17T07:57:39.417Z,67.39
2023-01-17T07:58:39.389Z,67.29
2023-01-17T07:59:39.375Z,67.22
2023-01-17T08:00:39.385Z,67.22
2023-01-17T08:01:39.479Z,67.21
2023-01-17T08:02:39.364Z,67.19
2023-01-17T08:03:39.369Z,67.30
2023-01-17T08:04:39.325Z,67.31
2023-01-17T08:05:39.309Z,67.37
2023-01-17T08:06:39.316Z,67.48
2023-01-17T08:07:39.323Z,71.14
2023-01-17T08:08:39.278Z,73.14
2023-01-17T08:09:39.274Z,72.41
2023-01-17T08:10:39.261Z,69.52
2023-01-17T08:11:39.249Z,68.16
2023-01-17T08:12:39.230Z,67.29
2023-01-17T08:13:39.232Z,67.15
2023-01-17T08:14:39.224Z,67.07
2023-01-17T08:15:39.205Z,67.13
2023-01-17T08:16:39.235Z,67.45
2023-01-17T08:17:39.215Z,67.73
2023-01-17T08:18:39.187Z,66.94
2023-01-17T08:19:39.169Z,66.62
2023-01-17T08:20:39.154Z,66.52
2023-01-17T08:21:39.140Z,66.43
2023-01-17T08:22:39.151Z,66.45
2023-01-17T08:23:39.143Z,66.42
2023-01-17T08:24:39.131Z,66.47
2023-01-17T08:25:39.097Z,66.59
2023-01-17T08:26:39.087Z,66.67
2023-01-17T08:27:39.074Z,66.64
2023-01-17T08:28:39.089Z,66.37
2023-01-17T08:29:39.053Z,66.27
2023-01-17T08:30:39.047Z,66.24
2023-01-17T08:31:39.101Z,66.29
2023-01-17T08:32:39.039Z,66.24
2023-01-17T08:33:39.031Z,66.27
2023-01-17T08:34:39.017Z,66.31
2023-01-17T08:35:38.992Z,66.32
2023-01-17T08:36:38.979Z,66.29
2023-01-17T08:37:38.973Z,66.35
2023-01-17T08:38:38.956Z,66.36
2023-01-17T08:39:38.966Z,66.26
2023-01-17T08:40:38.940Z,66.20
2023-01-17T08:41:38.925Z,66.11
2023-01-17T08:42:38.913Z,65.96
2023-01-17T08:43:38.921Z,65.95
2023-01-17T08:44:38.890Z,65.88
2023-01-17T08:45:38.933Z,65.72
2023-01-17T08:46:38.878Z,65.68
2023-01-17T08:47:38.871Z,65.43
2023-01-17T08:48:38.855Z,65.26
2023-01-17T08:49:38.836Z,65.25
2023-01-17T08:50:38.841Z,65.26
2023-01-17T08:51:38.831Z,65.34
2023-01-17T08:52:38.838Z,65.28
2023-01-17T08:53:38.793Z,65.16
2023-01-17T08:54:38.780Z,64.95
2023-01-17T08:55:38.768Z,64.85
2023-01-17T08:56:38.780Z,64.90
2023-01-17T08:57:38.775Z,64.87
2023-01-17T08:58:38.760Z,64.90
2023-01-17T08:59:38.742Z,64.92
2023-01-17T09:00:38.719Z,64.87
2023-01-17T09:01:38.764Z,64.84
2023-01-17T09:02:38.705Z,64.72
2023-01-17T09:03:40.825Z,64.67
2023-01-17T09:04:38.711Z,64.77
2023-01-17T09:05:38.681Z,64.81
2023-01-17T09:06:38.657Z,64.64
2023-01-17T09:07:38.669Z,64.55
2023-01-17T09:08:39.349Z,64.52
2023-01-17T09:09:38.632Z,64.38
2023-01-17T09:10:38.603Z,64.39
2023-01-17T09:11:38.638Z,64.39
2023-01-17T09:12:38.583Z,64.27
2023-01-17T09:13:38.582Z,64.22
2023-01-17T09:14:38.592Z,63.83
2023-01-17T09:15:38.556Z,63.75
2023-01-17T09:16:38.600Z,63.70
2023-01-17T09:17:38.533Z,63.56
2023-01-17T09:18:38.536Z,63.38
2023-01-17T09:19:38.517Z,63.19
2023-01-17T09:20:38.518Z,63.09
2023-01-17T09:21:38.493Z,62.95
2023-01-17T09:22:38.500Z,63.03
2023-01-17T09:23:38.487Z,62.91
2023-01-17T09:24:38.461Z,62.71
2023-01-17T09:25:38.474Z,62.63
2023-01-17T09:26:38.462Z,62.54
2023-01-17T09:27:38.430Z,62.27
2023-01-17T09:28:38.431Z,61.80
2023-01-17T09:29:38.400Z,61.38
2023-01-17T09:30:38.428Z,61.38
2023-01-17T09:31:38.416Z,61.39
2023-01-17T09:32:38.372Z,61.40
2023-01-17T09:33:38.397Z,61.12
2023-01-17T09:34:38.364Z,61.03
2023-01-17T09:35:38.330Z,60.83
2023-01-17T09:36:38.330Z,60.67
2023-01-17T09:37:38.323Z,60.78
2023-01-17T09:38:38.319Z,60.91
2023-01-17T09:39:38.300Z,60.69
2023-01-17T09:40:38.288Z,60.41
2023-01-17T09:41:38.274Z,60.28
2023-01-17T09:42:38.263Z,60.10
2023-01-17T09:43:40.794Z,60.09
2023-01-17T09:44:38.239Z,59.81
2023-01-17T09:45:38.255Z,59.58
2023-01-17T09:46:38.222Z,59.40
2023-01-17T09:47:38.247Z,59.42
2023-01-17T09:48:38.199Z,59.56
2023-01-17T09:49:38.189Z,59.36
2023-01-17T09:50:38.173Z,59.33
2023-01-17T09:51:38.172Z,59.37
2023-01-17T09:52:38.160Z,59.39
2023-01-17T09:53:38.168Z,59.72
2023-01-17T09:54:38.132Z,59.96
2023-01-17T09:55:38.143Z,59.98
2023-01-17T09:56:38.107Z,59.73
2023-01-17T09:57:38.111Z,59.56
2023-01-17T09:58:38.092Z,59.56
2023-01-17T09:59:38.092Z,59.42
2023-01-17T10:00:38.084Z,59.53
2023-01-17T10:01:38.289Z,59.69
2023-01-17T10:02:38.080Z,59.94
2023-01-17T10:03:38.161Z,60.07
2023-01-17T10:04:38.030Z,60.14
2023-01-17T10:05:38.016Z,60.31
2023-01-17T10:06:38.019Z,60.43
2023-01-17T10:07:37.997Z,60.43
2023-01-17T10:08:38.001Z,60.46
2023-01-17T10:09:37.991Z,60.55
2023-01-17T10:10:37.965Z,60.60
2023-01-17T10:11:37.960Z,60.71
2023-01-17T10:12:37.948Z,60.70
2023-01-17T10:13:37.977Z,60.68
2023-01-17T10:14:37.924Z,60.52
2023-01-17T10:15:37.905Z,60.47
2023-01-17T10:16:37.958Z,60.54
2023-01-17T10:17:37.876Z,60.58
2023-01-17T10:18:37.871Z,60.70
2023-01-17T10:19:37.952Z,60.81
2023-01-17T10:20:37.849Z,60.74
2023-01-17T10:21:37.842Z,60.87
2023-01-17T10:22:37.826Z,60.89
2023-01-17T10:23:37.880Z,60.90
2023-01-17T10:24:37.814Z,61.00
2023-01-17T10:25:37.799Z,60.94
2023-01-17T10:26:37.783Z,61.02
2023-01-17T10:27:37.784Z,61.16
2023-01-17T10:28:37.785Z,61.29
2023-01-17T10:29:37.755Z,61.25
2023-01-17T10:30:37.756Z,61.33
2023-01-17T10:31:37.744Z,61.44
2023-01-17T10:32:37.720Z,61.51
2023-01-17T10:33:37.755Z,61.45
2023-01-17T10:34:37.690Z,61.45
2023-01-17T10:35:37.717Z,61.51
2023-01-17T10:36:37.679Z,61.54
2023-01-17T10:37:37.674Z,61.71
2023-01-17T10:38:37.659Z,61.86
2023-01-17T10:39:37.641Z,61.73
2023-01-17T10:40:37.655Z,61.66
2023-01-17T10:41:37.627Z,61.75
2023-01-17T10:42:37.632Z,61.86
2023-01-17T10:43:37.622Z,61.91
2023-01-17T10:44:37.594Z,61.85
2023-01-17T10:45:37.602Z,61.92
2023-01-17T10:46:37.604Z,62.02
2023-01-17T10:47:37.559Z,62.16
2023-01-17T10:48:37.563Z,62.21
2023-01-17T10:49:37.562Z,62.17
2023-01-17T10:50:37.520Z,62.21
2023-01-17T10:51:37.542Z,62.15
2023-01-17T10:52:37.506Z,61.89
2023-01-17T10:53:37.498Z,61.78
2023-01-17T10:54:37.508Z,61.77
2023-01-17T10:55:37.495Z,61.78
2023-01-17T10:56:37.506Z,61.68
2023-01-17T10:57:37.458Z,61.60
2023-01-17T10:58:37.445Z,61.68
2023-01-17T10:59:37.441Z,61.79
2023-01-17T11:00:37.445Z,61.91
2023-01-17T11:01:37.546Z,61.98
2023-01-17T11:02:37.463Z,62.01
2023-01-17T11:03:37.401Z,61.98
2023-01-17T11:04:37.384Z,61.80
2023-01-17T11:05:37.365Z,61.29
2023-01-17T11:06:46.431Z,61.13
2023-01-17T11:07:40.062Z,61.11
2023-01-17T11:08:37.330Z,61.10
2023-01-17T11:09:37.331Z,61.01
2023-01-17T11:10:37.312Z,61.02
2023-01-17T11:11:37.310Z,61.09
2023-01-17T11:12:37.314Z,61.19
2023-01-17T11:13:37.331Z,61.22
2023-01-17T11:14:37.257Z,61.11
2023-01-17T11:15:37.296Z,61.07
2023-01-17T11:16:37.304Z,61.08
2023-01-17T11:17:37.247Z,61.08
2023-01-17T11:18:37.208Z,61.03
2023-01-17T11:19:37.243Z,60.95
2023-01-17T11:20:37.189Z,60.97
2023-01-17T11:21:37.192Z,61.06
2023-01-17T11:22:37.187Z,61.12
2023-01-17T11:23:37.187Z,60.97
2023-01-17T11:24:37.150Z,60.85
2023-01-17T11:25:37.146Z,60.92
2023-01-17T11:26:37.159Z,60.85
2023-01-17T11:27:37.123Z,60.72
2023-01-17T11:28:37.143Z,60.61
2023-01-17T11:29:37.208Z,60.41
2023-01-17T11:30:37.087Z,60.34
2023-01-17T11:31:37.082Z,60.36
2023-01-17T11:32:37.068Z,60.32
2023-01-17T11:33:37.065Z,60.47
2023-01-17T11:34:37.055Z,60.65
2023-01-17T11:35:37.032Z,60.59
2023-01-17T11:36:37.048Z,60.48
2023-01-17T11:37:37.006Z,60.50
2023-01-17T11:38:37.011Z,60.57
2023-01-17T11:39:36.987Z,60.56
2023-01-17T11:40:36.982Z,60.20
2023-01-17T11:41:36.967Z,59.85
2023-01-17T11:42:36.985Z,59.45
2023-01-17T11:43:36.951Z,59.33
2023-01-17T11:44:36.934Z,59.08
2023-01-17T11:45:36.947Z,58.77
2023-01-17T11:46:36.951Z,58.55
2023-01-17T11:47:36.899Z,58.58
2023-01-17T11:48:36.898Z,58.72
2023-01-17T11:49:36.886Z,58.63
2023-01-17T11:50:36.854Z,58.70
2023-01-17T11:51:36.871Z,58.83
2023-01-17T11:52:36.844Z,58.87
2023-01-17T11:53:36.841Z,58.54
2023-01-17T11:54:36.834Z,58.47
2023-01-17T11:55:36.817Z,58.34
2023-01-17T11:56:36.814Z,58.47
2023-01-17T11:57:36.787Z,58.31
2023-01-17T11:58:36.788Z,58.06
2023-01-17T11:59:36.787Z,57.97
2023-01-17T12:00:36.772Z,57.96
2023-01-17T12:01:36.747Z,58.03
2023-01-17T12:02:36.798Z,58.13
2023-01-17T12:03:36.747Z,58.03
2023-01-17T12:04:36.850Z,57.76
2023-01-17T12:05:36.716Z,57.73
2023-01-17T12:06:51.509Z,57.63
2023-01-17T12:07:37.692Z,57.70
2023-01-17T12:08:36.732Z,57.86
2023-01-17T12:09:36.689Z,57.72
2023-01-17T12:10:36.678Z,57.71
2023-01-17T12:11:36.650Z,57.86
2023-01-17T12:12:36.630Z,57.99
2023-01-17T12:13:36.613Z,57.97
2023-01-17T12:14:36.615Z,57.67
2023-01-17T12:15:36.624Z,57.78
2023-01-17T12:16:36.587Z,57.83
2023-01-17T12:17:36.571Z,57.78
2023-01-17T12:18:36.572Z,57.71
2023-01-17T12:19:36.627Z,57.88
2023-01-17T12:20:36.571Z,57.95
2023-01-17T12:21:36.560Z,57.73
2023-01-17T12:22:36.544Z,57.75
2023-01-17T12:23:37.164Z,57.92
2023-01-17T12:24:36.505Z,57.71
2023-01-17T12:25:36.489Z,57.30
2023-01-17T12:26:36.545Z,57.11
2023-01-17T12:27:36.479Z,57.12
2023-01-17T12:28:36.460Z,57.25
2023-01-17T12:29:36.450Z,57.28
2023-01-17T12:30:36.520Z,57.20
2023-01-17T12:31:36.518Z,56.76
2023-01-17T12:32:36.419Z,56.44
2023-01-17T12:33:36.399Z,56.44
2023-01-17T12:34:36.392Z,56.42
2023-01-17T12:35:36.390Z,56.56
2023-01-17T12:36:36.377Z,56.66
2023-01-17T12:37:36.390Z,56.64
2023-01-17T12:38:36.425Z,56.56
2023-01-17T12:39:36.339Z,56.17
2023-01-17T12:40:36.387Z,55.77
2023-01-17T12:41:36.319Z,55.43
2023-01-17T12:42:36.316Z,55.71
2023-01-17T12:43:36.306Z,55.80
2023-01-17T12:44:36.277Z,55.88
2023-01-17T12:45:36.275Z,55.67
2023-01-17T12:46:36.287Z,55.69
2023-01-17T12:47:36.289Z,55.65
2023-01-17T12:48:36.247Z,55.59
2023-01-17T12:49:36.232Z,55.74
2023-01-17T12:50:36.227Z,55.85
2023-01-17T12:51:36.219Z,56.06
2023-01-17T12:52:36.271Z,56.23